Time;durP1;ratioP1;P1;durP2;ratioP2;P2;SDS_P1;SDS_P2;PMS_P1;PMS_P2;Temp;Humidity;BMP_temperature;BMP_pressure;BME280_temperature;BME280_humidity;BME280_pressure;Samples;Min_cycle;Max_cycle;Signal;HPM_P1;HPM_P2
2021/09/02 00:02:21;;;;;;;9.50;4.00;;;13.00;99.90;;;;;;4426866;32;20176;-82
2021/09/02 00:04:48;;;;;;;10.40;4.00;;;13.00;99.90;;;;;;4435455;32;20193;-82
2021/09/02 00:07:15;;;;;;;8.77;3.93;;;13.00;99.90;;;;;;4438941;32;20242;-82
2021/09/02 00:09:41;;;;;;;9.83;4.40;;;12.90;99.90;;;;;;4439562;32;20165;-81
2021/09/02 00:12:09;;;;;;;11.33;4.10;;;12.90;99.90;;;;;;4439713;32;20422;-81
2021/09/02 00:14:35;;;;;;;8.87;4.03;;;12.90;99.90;;;;;;4440103;32;20127;-82
2021/09/02 00:17:02;;;;;;;9.83;4.57;;;12.80;99.90;;;;;;4440219;32;20154;-82
2021/09/02 00:19:29;;;;;;;10.17;4.60;;;12.80;99.90;;;;;;4440496;32;20218;-82
2021/09/02 00:21:56;;;;;;;10.10;4.13;;;12.70;99.90;;;;;;4440086;32;20141;-82
2021/09/02 00:24:24;;;;;;;9.03;4.10;;;12.70;99.90;;;;;;4438731;32;20397;-81
2021/09/02 00:26:50;;;;;;;9.23;4.27;;;12.70;99.90;;;;;;4440185;32;20207;-81
2021/09/02 00:29:17;;;;;;;9.03;4.10;;;12.60;99.90;;;;;;4430358;32;20170;-81
2021/09/02 00:31:44;;;;;;;8.47;4.30;;;12.60;99.90;;;;;;4440463;32;20185;-81
2021/09/02 00:34:11;;;;;;;10.10;4.40;;;12.60;99.90;;;;;;4440174;32;20230;-81
2021/09/02 00:36:38;;;;;;;26.53;5.87;;;12.50;99.90;;;;;;4438385;32;20146;-81
2021/09/02 00:39:04;;;;;;;10.30;4.30;;;12.60;99.90;;;;;;4439141;32;20135;-81
2021/09/02 00:41:31;;;;;;;9.57;4.30;;;12.50;99.90;;;;;;4438372;32;20187;-81
2021/09/02 00:43:58;;;;;;;11.97;4.53;;;12.40;99.90;;;;;;4439002;32;20415;-82
2021/09/02 00:46:25;;;;;;;9.60;4.03;;;12.40;99.90;;;;;;4438399;32;20305;-82
2021/09/02 00:48:52;;;;;;;11.90;4.67;;;12.40;99.90;;;;;;4438751;32;20131;-81
2021/09/02 00:51:21;;;;;;;13.03;4.63;;;12.40;99.90;;;;;;4439279;32;20156;-82
2021/09/02 00:53:49;;;;;;;9.10;4.17;;;12.30;99.90;;;;;;4439278;32;20149;-82
2021/09/02 00:56:16;;;;;;;9.47;4.23;;;12.30;99.90;;;;;;4439853;32;20571;-83
2021/09/02 00:58:44;;;;;;;11.80;4.53;;;12.20;99.90;;;;;;4438820;32;20208;-83
2021/09/02 01:01:12;;;;;;;8.33;3.80;;;12.20;99.90;;;;;;4438186;32;20142;-83
2021/09/02 01:03:39;;;;;;;12.17;5.00;;;12.20;99.90;;;;;;4440205;32;20131;-83
2021/09/02 01:06:05;;;;;;;11.73;4.87;;;12.20;99.90;;;;;;4438708;32;20184;-83
2021/09/02 01:08:34;;;;;;;9.60;5.00;;;12.20;99.90;;;;;;4439299;32;20158;-83
2021/09/02 01:11:01;;;;;;;8.07;4.43;;;12.10;99.90;;;;;;4439364;32;20525;-83
2021/09/02 01:13:29;;;;;;;10.10;4.17;;;12.10;99.90;;;;;;4438587;32;20127;-83
2021/09/02 01:15:56;;;;;;;10.13;4.87;;;12.10;99.90;;;;;;4438499;32;20177;-82
2021/09/02 01:18:23;;;;;;;11.43;4.63;;;12.10;99.90;;;;;;4438202;32;20131;-82
2021/09/02 01:20:50;;;;;;;10.17;4.83;;;12.10;99.90;;;;;;4437933;32;20123;-82
2021/09/02 01:23:21;;;;;;;8.37;4.47;;;12.00;99.90;;;;;;4437815;32;20510;-83
2021/09/02 01:25:49;;;;;;;12.13;4.60;;;12.00;99.90;;;;;;4439992;32;20176;-83
2021/09/02 01:28:16;;;;;;;9.50;4.37;;;12.00;99.90;;;;;;4438872;32;20130;-82
2021/09/02 01:30:44;;;;;;;10.90;4.57;;;12.00;99.90;;;;;;4438202;32;20286;-82
2021/09/02 01:33:13;;;;;;;11.23;4.40;;;11.90;99.90;;;;;;4438572;32;20147;-82
2021/09/02 01:35:39;;;;;;;11.53;4.47;;;11.90;99.90;;;;;;4437648;32;20461;-81
2021/09/02 01:38:07;;;;;;;10.63;4.57;;;11.80;99.90;;;;;;4442894;32;20214;-82
2021/09/02 01:40:43;;;;;;;9.53;5.07;;;11.80;99.90;;;;;;4445049;32;20183;-82
2021/09/02 01:43:13;;;;;;;12.13;4.27;;;11.80;99.90;;;;;;4438842;32;20402;-81
2021/09/02 01:45:40;;;;;;;8.77;4.30;;;11.80;99.90;;;;;;4437989;32;20151;-81
2021/09/02 01:48:07;;;;;;;10.27;4.80;;;11.80;99.90;;;;;;4439308;32;20147;-81
2021/09/02 01:50:37;;;;;;;10.63;4.43;;;11.80;99.90;;;;;;4438903;32;20134;-82
2021/09/02 01:53:06;;;;;;;10.50;4.63;;;11.80;99.90;;;;;;4441765;32;20154;-82
2021/09/02 01:55:33;;;;;;;11.43;5.00;;;11.80;99.90;;;;;;4440999;32;20126;-82
2021/09/02 01:58:01;;;;;;;11.93;4.97;;;11.80;99.90;;;;;;4441092;32;20166;-82
2021/09/02 02:00:28;;;;;;;12.87;4.83;;;11.70;99.90;;;;;;4441596;32;20342;-82
2021/09/02 02:02:55;;;;;;;11.33;4.93;;;11.70;99.90;;;;;;4440823;32;20135;-82
2021/09/02 02:05:22;;;;;;;10.40;4.83;;;11.60;99.90;;;;;;4441578;32;20199;-83
2021/09/02 02:07:49;;;;;;;11.77;4.57;;;11.60;99.90;;;;;;4442008;32;20131;-82
2021/09/02 02:10:20;;;;;;;13.43;4.93;;;11.60;99.90;;;;;;4441554;32;20192;-83
2021/09/02 02:12:46;;;;;;;12.17;5.97;;;11.60;99.90;;;;;;4441307;32;20191;-83
2021/09/02 02:15:13;;;;;;;11.20;4.53;;;11.50;99.90;;;;;;4442581;32;20156;-83
2021/09/02 02:17:41;;;;;;;9.33;4.33;;;11.50;99.90;;;;;;4440307;32;20663;-83
2021/09/02 02:20:09;;;;;;;11.13;4.57;;;11.50;99.90;;;;;;4442369;32;20153;-83
2021/09/02 02:22:37;;;;;;;10.33;5.37;;;11.50;99.90;;;;;;4441149;32;20143;-82
2021/09/02 02:25:05;;;;;;;10.23;4.73;;;11.50;99.90;;;;;;4440902;32;20187;-82
2021/09/02 02:27:33;;;;;;;10.13;4.60;;;11.40;99.90;;;;;;4440802;32;20211;-82
2021/09/02 02:30:00;;;;;;;14.93;5.03;;;11.40;99.90;;;;;;4440290;32;20161;-83
2021/09/02 02:32:27;;;;;;;11.57;5.07;;;11.40;99.90;;;;;;4440831;32;20202;-82
2021/09/02 02:34:54;;;;;;;11.53;5.00;;;11.30;99.90;;;;;;4440910;32;20572;-82
2021/09/02 02:37:21;;;;;;;11.80;5.03;;;11.30;99.90;;;;;;4440617;32;20532;-82
2021/09/02 02:39:48;;;;;;;13.10;4.80;;;11.20;99.90;;;;;;4440136;32;20496;-83
2021/09/02 02:42:16;;;;;;;14.87;5.37;;;11.30;99.90;;;;;;4440872;32;20161;-82
2021/09/02 02:44:44;;;;;;;14.90;4.80;;;11.30;99.90;;;;;;4440251;32;20126;-82
2021/09/02 02:47:10;;;;;;;11.20;4.93;;;11.20;99.90;;;;;;4439731;32;20233;-82
2021/09/02 02:49:39;;;;;;;11.20;4.80;;;11.30;99.90;;;;;;4440440;32;20408;-81
2021/09/02 02:52:07;;;;;;;12.77;5.30;;;11.20;99.90;;;;;;4440569;32;20127;-81
2021/09/02 02:54:35;;;;;;;15.37;5.73;;;11.20;99.90;;;;;;4440682;32;20195;-83
2021/09/02 02:57:02;;;;;;;13.13;5.43;;;11.20;99.90;;;;;;4440059;32;20130;-80
2021/09/02 02:59:29;;;;;;;13.13;5.10;;;11.10;99.90;;;;;;4440335;32;20130;-82
2021/09/02 03:01:56;;;;;;;12.50;5.40;;;11.00;99.90;;;;;;4440690;32;20228;-83
2021/09/02 03:04:23;;;;;;;9.43;4.93;;;11.00;99.90;;;;;;4440416;32;20181;-82
2021/09/02 03:06:49;;;;;;;14.63;5.40;;;11.00;99.90;;;;;;4439804;32;20524;-81
2021/09/02 03:09:17;;;;;;;10.53;5.20;;;11.00;99.90;;;;;;4440257;32;20378;-82
2021/09/02 03:11:43;;;;;;;14.33;5.13;;;11.00;99.90;;;;;;4440195;32;20165;-82
2021/09/02 03:14:10;;;;;;;11.63;4.80;;;10.90;99.90;;;;;;4441551;32;20135;-82
2021/09/02 03:16:37;;;;;;;10.97;4.90;;;10.90;99.90;;;;;;4440895;32;20458;-82
2021/09/02 03:19:04;;;;;;;12.07;5.43;;;10.90;99.90;;;;;;4440279;32;20456;-82
2021/09/02 03:21:30;;;;;;;10.33;4.90;;;10.90;99.90;;;;;;4440603;32;20135;-82
2021/09/02 03:23:57;;;;;;;12.73;4.93;;;11.00;99.90;;;;;;4440743;32;20187;-82
2021/09/02 03:26:24;;;;;;;12.57;5.17;;;11.00;99.90;;;;;;4433540;32;20214;-81
2021/09/02 03:28:51;;;;;;;12.43;4.90;;;11.00;99.90;;;;;;4432270;32;20149;-82
2021/09/02 03:31:18;;;;;;;12.07;5.43;;;10.90;99.90;;;;;;4424767;32;20154;-81
2021/09/02 03:33:44;;;;;;;10.77;4.87;;;10.90;99.90;;;;;;4424929;32;20485;-81
2021/09/02 03:36:12;;;;;;;14.23;5.37;;;10.90;99.90;;;;;;4424285;32;20188;-82
2021/09/02 03:38:38;;;;;;;11.70;5.53;;;10.90;99.90;;;;;;4423444;32;20131;-81
2021/09/02 03:41:05;;;;;;;14.07;5.50;;;10.90;99.90;;;;;;4423643;32;20218;-82
2021/09/02 03:43:32;;;;;;;12.50;5.17;;;10.80;99.90;;;;;;4425033;32;20513;-82
2021/09/02 03:45:59;;;;;;;8.27;4.70;;;10.80;99.90;;;;;;4423653;32;20235;-81
2021/09/02 03:48:26;;;;;;;15.97;5.23;;;10.80;99.90;;;;;;4424712;32;20270;-82
2021/09/02 03:50:52;;;;;;;13.87;6.07;;;10.80;99.90;;;;;;4423399;32;20144;-82
2021/09/02 03:53:19;;;;;;;11.77;5.20;;;10.80;99.90;;;;;;4424301;32;20200;-81
2021/09/02 03:55:46;;;;;;;13.10;5.27;;;10.80;99.90;;;;;;4423829;32;20139;-80
2021/09/02 03:58:13;;;;;;;13.87;5.60;;;10.80;99.90;;;;;;4428768;32;20173;-81
2021/09/02 04:00:39;;;;;;;13.03;5.27;;;10.80;99.90;;;;;;4438719;32;20246;-80
2021/09/02 04:03:06;;;;;;;12.47;4.93;;;10.90;99.90;;;;;;4436631;32;20173;-81
2021/09/02 04:05:33;;;;;;;14.00;5.90;;;10.90;99.90;;;;;;4423192;32;20147;-81
2021/09/02 04:08:00;;;;;;;12.40;4.90;;;10.90;99.90;;;;;;4410242;32;20453;-82
2021/09/02 04:10:27;;;;;;;10.60;4.40;;;10.90;99.90;;;;;;4407987;32;20144;-82
2021/09/02 04:12:54;;;;;;;9.90;4.50;;;10.90;99.90;;;;;;4408859;32;20151;-81
2021/09/02 04:15:21;;;;;;;14.27;4.93;;;11.00;99.90;;;;;;4408029;32;20639;-80
2021/09/02 04:17:47;;;;;;;12.67;5.00;;;11.00;99.90;;;;;;4409528;32;20135;-81
2021/09/02 04:20:14;;;;;;;9.93;5.00;;;11.00;99.90;;;;;;4408991;32;20413;-81
2021/09/02 04:22:41;;;;;;;13.00;5.17;;;11.00;99.90;;;;;;4408495;32;20501;-80
2021/09/02 04:25:08;;;;;;;13.73;5.53;;;10.90;99.90;;;;;;4409933;32;20191;-81
2021/09/02 04:27:36;;;;;;;11.00;4.90;;;10.90;99.90;;;;;;4408291;32;20171;-81
2021/09/02 04:30:04;;;;;;;11.23;5.30;;;10.90;99.90;;;;;;4409058;32;20182;-80
2021/09/02 04:32:31;;;;;;;13.03;5.13;;;10.90;99.90;;;;;;4409595;32;20218;-80
2021/09/02 04:34:57;;;;;;;11.90;4.63;;;11.00;99.90;;;;;;4416129;32;20235;-80
2021/09/02 04:37:25;;;;;;;13.53;5.20;;;11.00;99.90;;;;;;4425901;32;20710;-80
2021/09/02 04:39:51;;;;;;;13.97;5.50;;;11.00;99.90;;;;;;4438698;32;20207;-80
2021/09/02 04:42:18;;;;;;;13.80;5.20;;;11.00;99.90;;;;;;4438365;32;20191;-79
2021/09/02 04:44:45;;;;;;;12.57;5.70;;;11.10;99.90;;;;;;4439440;32;20258;-79
2021/09/02 04:47:12;;;;;;;12.03;5.37;;;11.10;99.90;;;;;;4438734;32;20169;-81
2021/09/02 04:49:38;;;;;;;10.93;4.90;;;11.20;99.90;;;;;;4440294;32;20389;-81
2021/09/02 04:52:05;;;;;;;13.47;5.30;;;11.20;99.90;;;;;;4439697;32;20195;-80
2021/09/02 04:54:32;;;;;;;14.37;5.33;;;11.30;99.90;;;;;;4440593;32;20206;-81
2021/09/02 04:56:59;;;;;;;15.77;5.50;;;11.40;99.90;;;;;;4439742;32;20675;-82
2021/09/02 04:59:26;;;;;;;11.07;5.03;;;11.50;99.90;;;;;;4439263;32;20191;-82
2021/09/02 05:01:53;;;;;;;13.10;5.50;;;11.60;99.90;;;;;;4440370;32;20139;-81
2021/09/02 05:04:20;;;;;;;13.00;4.90;;;11.70;99.90;;;;;;4439534;32;20462;-80
2021/09/02 05:06:47;;;;;;;12.73;5.03;;;11.80;99.90;;;;;;4439448;32;20130;-80
2021/09/02 05:09:13;;;;;;;12.10;5.23;;;11.80;99.90;;;;;;4440181;32;20219;-80
2021/09/02 05:11:40;;;;;;;10.57;4.93;;;12.00;99.90;;;;;;4431451;32;20219;-81
2021/09/02 05:14:07;;;;;;;13.87;4.90;;;12.00;99.90;;;;;;4422799;32;20453;-80
2021/09/02 05:16:34;;;;;;;10.33;4.50;;;12.00;99.90;;;;;;4423189;32;20158;-81
2021/09/02 05:19:01;;;;;;;14.63;5.47;;;12.10;99.90;;;;;;4423458;32;20148;-80
2021/09/02 05:21:28;;;;;;;13.10;5.70;;;12.10;99.90;;;;;;4423943;32;20131;-81
2021/09/02 05:23:54;;;;;;;11.73;5.03;;;12.20;99.90;;;;;;4424327;32;20184;-79
2021/09/02 05:26:21;;;;;;;11.63;5.07;;;12.20;99.90;;;;;;4423329;32;20123;-79
2021/09/02 05:28:48;;;;;;;12.70;5.17;;;12.30;99.90;;;;;;4426214;32;20536;-79
2021/09/02 05:31:15;;;;;;;12.17;5.33;;;12.30;99.90;;;;;;4426780;32;20138;-84
2021/09/02 05:33:41;;;;;;;9.87;5.17;;;12.30;99.90;;;;;;4425853;32;20158;-81
2021/09/02 05:36:09;;;;;;;11.63;4.97;;;12.30;99.90;;;;;;4426514;32;20510;-77
2021/09/02 05:38:36;;;;;;;10.10;4.83;;;12.40;99.90;;;;;;4425157;32;20205;-75
2021/09/02 05:41:03;;;;;;;13.00;5.10;;;12.50;99.90;;;;;;4426252;32;20487;-84
2021/09/02 05:43:31;;;;;;;13.23;5.37;;;12.40;99.90;;;;;;4431624;32;20151;-81
2021/09/02 05:45:58;;;;;;;12.10;4.70;;;12.50;99.90;;;;;;4445128;32;20150;-82
2021/09/02 05:48:25;;;;;;;11.73;5.07;;;12.60;99.90;;;;;;4441983;32;20477;-86
2021/09/02 05:50:52;;;;;;;10.00;4.60;;;12.70;99.90;;;;;;4442280;32;20142;-86
2021/09/02 05:53:20;;;;;;;8.90;4.60;;;12.70;99.90;;;;;;4442147;32;20190;-87
2021/09/02 05:55:48;;;;;;;12.97;5.13;;;12.80;99.90;;;;;;4442151;32;20131;-86
2021/09/02 05:58:16;;;;;;;11.50;5.30;;;12.80;99.90;;;;;;4441468;32;20410;-87
2021/09/02 06:00:43;;;;;;;11.77;5.13;;;12.90;99.90;;;;;;4442679;32;20127;-68
2021/09/02 06:03:13;;;;;;;10.87;4.47;;;13.00;99.90;;;;;;4426044;32;20463;-69
2021/09/02 06:05:40;;;;;;;12.70;4.70;;;13.00;99.90;;;;;;4424722;32;20155;-69
2021/09/02 06:08:06;;;;;;;9.40;4.43;;;13.00;99.90;;;;;;4427341;32;20136;-69
2021/09/02 06:10:34;;;;;;;12.10;4.93;;;13.10;99.90;;;;;;4426923;32;20417;-68
2021/09/02 06:13:01;;;;;;;11.17;4.63;;;13.10;99.90;;;;;;4425570;32;20487;-67
2021/09/02 06:15:28;;;;;;;11.97;4.30;;;13.20;99.90;;;;;;4425122;32;20186;-70
2021/09/02 06:17:55;;;;;;;10.10;4.60;;;13.30;99.90;;;;;;4425136;32;20135;-68
2021/09/02 06:20:22;;;;;;;12.03;4.27;;;13.40;99.90;;;;;;4427031;32;20138;-68
2021/09/02 06:22:48;;;;;;;12.03;4.87;;;13.50;99.90;;;;;;4425522;32;20194;-69
2021/09/02 06:25:15;;;;;;;9.87;4.60;;;13.60;99.90;;;;;;4425045;32;20201;-68
2021/09/02 06:27:42;;;;;;;13.03;4.63;;;13.80;99.90;;;;;;4426701;32;20176;-69
2021/09/02 06:30:09;;;;;;;10.50;4.40;;;13.80;99.90;;;;;;4426970;32;20127;-69
2021/09/02 06:32:36;;;;;;;12.47;4.90;;;13.80;99.90;;;;;;4426028;32;20146;-68
2021/09/02 06:35:03;;;;;;;11.13;4.63;;;13.90;99.90;;;;;;4426671;32;20142;-68
2021/09/02 06:37:31;;;;;;;12.63;4.60;;;14.00;99.90;;;;;;4426943;32;20139;-68
2021/09/02 06:39:58;;;;;;;10.70;4.33;;;13.90;99.90;;;;;;4425408;32;20131;-68
2021/09/02 06:42:24;;;;;;;10.10;4.13;;;14.00;99.90;;;;;;4425467;32;20177;-68
2021/09/02 06:44:51;;;;;;;12.37;4.57;;;14.00;99.90;;;;;;4425665;32;20131;-69
2021/09/02 06:47:18;;;;;;;11.23;4.73;;;14.20;99.90;;;;;;4425474;32;20167;-69
2021/09/02 06:49:45;;;;;;;9.87;4.27;;;14.30;99.90;;;;;;4425501;32;20165;-69
2021/09/02 06:52:12;;;;;;;9.40;4.37;;;14.40;99.90;;;;;;4426697;32;20131;-69
2021/09/02 06:54:38;;;;;;;9.57;4.67;;;14.50;99.90;;;;;;4426365;32;20153;-69
2021/09/02 06:57:05;;;;;;;10.37;4.73;;;14.60;99.90;;;;;;4425815;32;20437;-69
2021/09/02 06:59:32;;;;;;;11.47;5.07;;;14.60;99.90;;;;;;4424673;32;20180;-69
2021/09/02 07:01:59;;;;;;;9.30;4.67;;;14.70;99.90;;;;;;4426405;32;20139;-69
2021/09/02 07:04:26;;;;;;;10.97;4.20;;;14.70;99.90;;;;;;4424589;32;20150;-69
2021/09/02 07:06:53;;;;;;;8.03;4.20;;;14.70;99.90;;;;;;4426391;32;20185;-68
2021/09/02 07:09:20;;;;;;;10.30;4.50;;;14.80;99.90;;;;;;4424819;32;20131;-69
2021/09/02 07:11:46;;;;;;;8.10;4.57;;;14.80;99.90;;;;;;4424353;32;20191;-69
2021/09/02 07:14:13;;;;;;;9.93;4.43;;;14.90;99.90;;;;;;4426127;32;20127;-68
2021/09/02 07:16:40;;;;;;;9.57;5.00;;;14.90;99.90;;;;;;4425713;32;20211;-69
2021/09/02 07:19:07;;;;;;;7.90;4.60;;;14.90;99.90;;;;;;4423927;32;20143;-69
2021/09/02 07:21:33;;;;;;;11.23;4.93;;;14.90;99.90;;;;;;4424865;32;20532;-69
2021/09/02 07:24:00;;;;;;;8.60;5.00;;;14.90;99.90;;;;;;4425925;32;20181;-69
2021/09/02 07:26:27;;;;;;;11.17;4.87;;;14.90;99.90;;;;;;4424175;32;20412;-68
2021/09/02 07:28:54;;;;;;;8.07;4.93;;;14.90;99.90;;;;;;4424763;32;20158;-68
2021/09/02 07:31:21;;;;;;;8.73;5.00;;;14.90;99.90;;;;;;4424190;32;20151;-69
2021/09/02 07:33:47;;;;;;;10.57;5.20;;;15.00;99.90;;;;;;4424071;32;20374;-68
2021/09/02 07:36:14;;;;;;;8.93;4.73;;;15.00;99.90;;;;;;4425929;32;20136;-70
2021/09/02 07:38:54;;;;;;;9.57;5.20;;;15.00;99.90;;;;;;4424041;32;20356;-68
2021/09/02 07:41:21;;;;;;;9.60;5.00;;;15.00;99.90;;;;;;4424124;32;20136;-70
2021/09/02 07:43:48;;;;;;;9.10;5.00;;;15.10;99.90;;;;;;4424321;32;20162;-68
2021/09/02 07:46:15;;;;;;;9.20;5.47;;;15.00;99.90;;;;;;4423658;32;20159;-69
2021/09/02 07:48:45;;;;;;;10.07;5.67;;;15.10;99.90;;;;;;4425795;32;20135;-69
2021/09/02 07:51:17;;;;;;;12.87;5.90;;;15.10;99.90;;;;;;4425625;32;20139;-69
2021/09/02 07:53:44;;;;;;;10.47;5.00;;;15.10;99.90;;;;;;4423440;32;20162;-69
2021/09/02 07:56:11;;;;;;;11.10;5.50;;;15.00;99.90;;;;;;4425555;32;20131;-69
2021/09/02 07:58:38;;;;;;;9.93;5.10;;;14.80;99.90;;;;;;4423638;32;20504;-69
2021/09/02 08:01:10;;;;;;;12.27;5.73;;;14.70;99.90;;;;;;4424577;32;20179;-69
2021/09/02 08:03:38;;;;;;;8.10;5.20;;;14.60;99.90;;;;;;4424153;32;20169;-69
2021/09/02 08:06:05;;;;;;;10.57;5.03;;;14.50;99.90;;;;;;4424094;32;20507;-68
2021/09/02 08:08:32;;;;;;;6.63;4.40;;;14.60;99.90;;;;;;4423901;32;20439;-68
2021/09/02 08:10:59;;;;;;;9.70;5.10;;;14.50;99.90;;;;;;4425669;32;20183;-68
2021/09/02 08:13:25;;;;;;;8.90;5.13;;;14.60;99.90;;;;;;4423896;32;20126;-69
2021/09/02 08:15:53;;;;;;;10.17;5.00;;;14.80;99.90;;;;;;4423774;32;20233;-67
2021/09/02 08:18:19;;;;;;;9.13;5.23;;;15.10;99.90;;;;;;4423749;32;20127;-68
2021/09/02 08:20:46;;;;;;;9.60;5.07;;;15.20;99.90;;;;;;4424253;32;20140;-68
2021/09/02 08:23:13;;;;;;;10.30;5.50;;;15.40;99.90;;;;;;4423420;32;20548;-68
2021/09/02 08:25:40;;;;;;;8.00;5.23;;;15.70;99.90;;;;;;4425238;32;20404;-68
2021/09/02 08:28:07;;;;;;;10.20;5.13;;;16.10;99.90;;;;;;4423290;32;20398;-68
2021/09/02 08:30:34;;;;;;;7.63;5.20;;;16.80;99.90;;;;;;4423644;32;20508;-68
2021/09/02 08:33:01;;;;;;;9.13;5.30;;;17.30;99.90;;;;;;4423135;32;20146;-67
2021/09/02 08:35:32;;;;;;;10.23;5.30;;;17.10;99.90;;;;;;4425024;32;20400;-67
2021/09/02 08:38:01;;;;;;;9.47;4.60;;;17.00;99.90;;;;;;4423065;32;20176;-68
2021/09/02 08:40:32;;;;;;;6.63;4.40;;;16.90;99.90;;;;;;4423395;32;20127;-69
2021/09/02 08:43:00;;;;;;;7.53;4.63;;;16.80;99.90;;;;;;4423551;32;20145;-67
2021/09/02 08:45:29;;;;;;;9.50;4.60;;;17.00;99.90;;;;;;4424870;32;20128;-69
2021/09/02 08:48:00;;;;;;;8.00;4.50;;;16.90;99.90;;;;;;4420365;32;20532;-68
2021/09/02 08:50:32;;;;;;;8.00;4.37;;;16.50;99.90;;;;;;4424811;32;20143;-69
2021/09/02 08:53:00;;;;;;;8.33;4.70;;;16.30;99.90;;;;;;4425075;32;20147;-68
2021/09/02 08:55:28;;;;;;;6.93;4.30;;;16.50;99.90;;;;;;4424370;32;20180;-68
2021/09/02 08:57:56;;;;;;;8.60;5.00;;;16.80;99.90;;;;;;4423624;32;20476;-68
2021/09/02 09:00:27;;;;;;;8.47;4.40;;;16.90;99.90;;;;;;4423956;32;20127;-69
2021/09/02 09:03:05;;;;;;;7.97;4.67;;;16.90;99.90;;;;;;4424510;32;20178;-68
2021/09/02 09:05:34;;;;;;;6.93;4.60;;;16.90;99.90;;;;;;4423824;32;20139;-68
2021/09/02 09:08:08;;;;;;;8.73;4.73;;;16.90;99.90;;;;;;4424103;32;20146;-68
2021/09/02 09:10:35;;;;;;;5.93;4.10;;;16.70;99.90;;;;;;4424095;32;20526;-68
2021/09/02 09:13:04;;;;;;;6.93;4.10;;;16.70;99.90;;;;;;4423516;32;20196;-69
2021/09/02 09:15:45;;;;;;;6.80;4.03;;;16.80;99.90;;;;;;4422144;32;20187;-69
2021/09/02 09:18:20;;;;;;;9.33;4.30;;;16.90;99.90;;;;;;4425138;32;20139;-68
2021/09/02 09:21:09;;;;;;;9.57;4.30;;;17.00;99.90;;;;;;4423585;32;20191;-68
2021/09/02 09:23:54;;;;;;;7.30;4.30;;;17.10;99.90;;;;;;4422702;32;20187;-67
2021/09/02 09:26:22;;;;;;;9.10;4.10;;;17.20;99.90;;;;;;4424786;32;20177;-68
2021/09/02 09:28:49;;;;;;;6.50;3.60;;;17.20;99.90;;;;;;4424590;32;20154;-68
2021/09/02 09:31:35;;;;;;;5.30;3.47;;;17.40;99.90;;;;;;4422869;32;20243;-68
2021/09/02 09:34:06;;;;;;;7.77;3.40;;;17.70;99.90;;;;;;4424476;32;20514;-69
2021/09/02 09:36:35;;;;;;;8.90;3.10;;;17.90;99.90;;;;;;4424095;32;20128;-68
2021/09/02 09:39:10;;;;;;;5.33;3.20;;;18.10;99.90;;;;;;4424660;32;20131;-68
2021/09/02 09:41:42;;;;;;;4.60;2.70;;;18.50;99.90;;;;;;4422499;32;20134;-67
2021/09/02 09:44:28;;;;;;;4.10;2.70;;;19.00;99.90;;;;;;4424751;32;20200;-68
2021/09/02 09:47:16;;;;;;;5.27;2.80;;;19.70;99.90;;;;;;4423740;32;20194;-68
2021/09/02 09:49:44;;;;;;;5.27;2.80;;;20.20;99.90;;;;;;4423465;32;20143;-68
2021/09/02 09:52:25;;;;;;;4.57;2.70;;;20.30;99.90;;;;;;4423187;32;20204;-68
2021/09/02 09:54:59;;;;;;;5.13;2.80;;;20.30;99.90;;;;;;4423621;32;20506;-68
2021/09/02 09:57:30;;;;;;;5.77;2.70;;;20.40;99.90;;;;;;4423483;32;20199;-69
2021/09/02 10:00:08;;;;;;;4.43;2.87;;;20.70;99.90;;;;;;4422797;32;20135;-69
2021/09/02 10:02:37;;;;;;;10.07;2.73;;;20.70;99.90;;;;;;4423570;32;20418;-68
2021/09/02 10:05:06;;;;;;;4.30;2.67;;;20.20;99.90;;;;;;4424618;32;20521;-67
2021/09/02 10:07:35;;;;;;;6.73;2.57;;;20.00;99.90;;;;;;4424157;32;20147;-68
2021/09/02 10:10:03;;;;;;;4.87;2.67;;;20.20;99.90;;;;;;4422776;32;20497;-68
2021/09/02 10:12:35;;;;;;;5.00;3.00;;;20.00;99.90;;;;;;4423630;32;20135;-68
2021/09/02 10:15:07;;;;;;;6.40;2.70;;;19.90;99.90;;;;;;4424207;32;20127;-68
2021/09/02 10:17:35;;;;;;;5.23;3.40;;;20.30;99.90;;;;;;4425884;32;20353;-68
2021/09/02 10:20:09;;;;;;;5.87;2.67;;;20.60;99.90;;;;;;4427239;32;20127;-68
2021/09/02 10:22:36;;;;;;;4.20;2.90;;;20.30;99.90;;;;;;4426805;32;20153;-67
2021/09/02 10:25:04;;;;;;;5.53;2.60;;;21.20;99.90;;;;;;4425172;32;20184;-68
2021/09/02 10:27:31;;;;;;;4.10;2.40;;;21.80;99.90;;;;;;4424504;32;20132;-68
2021/09/02 10:29:58;;;;;;;5.60;2.40;;;22.90;99.90;;;;;;4424821;32;20264;-68
2021/09/02 10:32:28;;;;;;;5.60;2.93;;;23.60;99.90;;;;;;4424555;32;20165;-69
2021/09/02 10:35:12;;;;;;;5.77;2.87;;;22.70;99.90;;;;;;4425286;32;20139;-69
2021/09/02 10:37:43;;;;;;;5.23;2.80;;;23.20;99.90;;;;;;4424845;32;20210;-67
2021/09/02 10:40:15;;;;;;;5.43;2.80;;;24.20;99.90;;;;;;4426164;32;20151;-67
2021/09/02 10:42:47;;;;;;;5.32;2.85;;;24.80;96.40;;;;;;4425155;32;20441;-68
2021/09/02 10:45:34;;;;;;;5.00;2.80;;;24.00;96.40;;;;;;4424458;32;20484;-68
2021/09/02 10:48:07;;;;;;;4.73;2.70;;;24.80;96.40;;;;;;4424552;32;20173;-67
2021/09/02 10:50:42;;;;;;;6.47;2.90;;;25.30;95.60;;;;;;4424172;32;20135;-68
2021/09/02 10:53:12;;;;;;;5.93;3.12;;;25.20;94.20;;;;;;4425980;32;20142;-68
2021/09/02 10:55:50;;;;;;;4.50;2.87;;;24.70;93.40;;;;;;4424221;32;20149;-67
2021/09/02 10:58:45;;;;;;;5.22;3.00;;;24.30;94.10;;;;;;4426005;32;20144;-68
2021/09/02 11:01:39;;;;;;;5.27;2.67;;;24.10;94.70;;;;;;4426344;32;20433;-68
2021/09/02 11:04:12;;;;;;;5.20;2.78;;;24.50;93.70;;;;;;4424741;32;20166;-69
2021/09/02 11:06:47;;;;;;;5.40;2.70;;;24.30;94.60;;;;;;4425979;32;20495;-68
2021/09/02 11:09:34;;;;;;;4.40;2.58;;;24.00;93.30;;;;;;4424312;32;20127;-68
2021/09/02 11:12:05;;;;;;;4.90;2.47;;;23.00;92.70;;;;;;4425597;32;20146;-68
2021/09/02 11:14:39;;;;;;;4.78;2.45;;;22.30;93.90;;;;;;4426161;32;20177;-68
2021/09/02 11:17:07;;;;;;;5.50;2.50;;;22.10;95.70;;;;;;4425592;32;20159;-68
2021/09/02 11:19:37;;;;;;;4.97;2.70;;;22.10;96.00;;;;;;4425982;32;20496;-67
2021/09/02 11:22:16;;;;;;;5.70;2.60;;;23.00;95.50;;;;;;4424142;32;20180;-69
2021/09/02 11:24:51;;;;;;;4.17;2.57;;;24.10;95.30;;;;;;4424202;32;20143;-69
2021/09/02 11:27:34;;;;;;;4.28;2.60;;;25.30;91.70;;;;;;4425026;32;20183;-69
2021/09/02 11:30:17;;;;;;;4.10;2.70;;;26.30;87.90;;;;;;4423290;32;20180;-67
2021/09/02 11:32:50;;;;;;;5.90;2.40;;;26.80;83.40;;;;;;4424251;32;20184;-68
2021/09/02 11:35:17;;;;;;;4.18;2.28;;;28.00;80.70;;;;;;4424484;32;20517;-67
2021/09/02 11:37:45;;;;;;;3.80;2.55;;;29.00;76.00;;;;;;4424042;32;20498;-67
2021/09/02 11:40:32;;;;;;;4.28;2.28;;;29.70;66.70;;;;;;4425051;32;20184;-67
2021/09/02 11:43:00;;;;;;;4.25;2.15;;;30.60;63.00;;;;;;4425765;32;20177;-68
2021/09/02 11:45:29;;;;;;;3.15;2.40;;;31.80;59.10;;;;;;4424645;32;20127;-68
2021/09/02 11:48:05;;;;;;;3.35;2.20;;;31.20;55.00;;;;;;4424306;32;20199;-68
2021/09/02 11:50:32;;;;;;;3.85;2.28;;;31.80;54.80;;;;;;4425937;32;20135;-68
2021/09/02 11:52:59;;;;;;;2.70;2.10;;;31.30;55.80;;;;;;4423869;32;20498;-69
2021/09/02 11:55:33;;;;;;;4.00;2.08;;;31.80;56.30;;;;;;4425735;32;20373;-68
2021/09/02 11:58:05;;;;;;;3.12;2.05;;;32.70;52.30;;;;;;4425743;32;20170;-68
2021/09/02 12:00:33;;;;;;;4.12;2.05;;;32.10;50.80;;;;;;4425762;32;20154;-67
2021/09/02 12:03:02;;;;;;;2.12;1.80;;;31.10;52.50;;;;;;4423930;32;20157;-67
2021/09/02 12:05:39;;;;;;;3.75;1.80;;;31.00;54.10;;;;;;4424351;32;20201;-68
2021/09/02 12:08:11;;;;;;;3.40;1.75;;;32.00;52.00;;;;;;4422556;32;20178;-66
2021/09/02 12:10:43;;;;;;;3.12;1.90;;;31.70;51.50;;;;;;4425509;32;20128;-67
2021/09/02 12:13:25;;;;;;;4.12;2.20;;;30.80;53.80;;;;;;4425045;32;20204;-67
2021/09/02 12:16:06;;;;;;;3.72;2.08;;;29.50;55.90;;;;;;4423844;32;20204;-68
2021/09/02 12:18:34;;;;;;;3.58;2.05;;;28.40;57.10;;;;;;4424049;32;20173;-68
2021/09/02 12:21:12;;;;;;;4.28;2.35;;;27.80;58.70;;;;;;4424165;32;20188;-67
2021/09/02 12:23:49;;;;;;;4.22;2.10;;;27.10;59.10;;;;;;4423756;32;20151;-67
2021/09/02 12:26:19;;;;;;;4.80;2.20;;;26.50;60.80;;;;;;4425201;32;20433;-68
2021/09/02 12:28:48;;;;;;;5.75;2.30;;;26.20;64.00;;;;;;4424426;32;20177;-68
2021/09/02 12:31:24;;;;;;;4.18;2.22;;;25.40;64.20;;;;;;4423773;32;20204;-68
2021/09/02 12:34:30;;;;;;;4.40;2.10;;;24.80;66.80;;;;;;4423667;32;20131;-68
2021/09/02 12:37:01;;;;;;;4.80;2.22;;;23.90;67.40;;;;;;4376900;32;20474;-68
2021/09/02 12:39:30;;;;;;;4.45;2.00;;;23.30;68.50;;;;;;4376591;32;20423;-68
2021/09/02 12:42:03;;;;;;;4.57;2.03;;;22.50;70.90;;;;;;4376251;32;20137;-68
2021/09/02 12:44:32;;;;;;;4.33;1.90;;;22.20;72.80;;;;;;4376141;32;20170;-68
2021/09/02 12:47:11;;;;;;;3.43;1.90;;;22.00;74.30;;;;;;4376654;32;20156;-67
2021/09/02 12:49:39;;;;;;;3.47;1.70;;;21.80;75.80;;;;;;4374921;32;20166;-69
2021/09/02 12:52:12;;;;;;;3.00;1.97;;;21.40;76.90;;;;;;4377513;32;20148;-68